Latest Weather Observations for Fowlers Gap

IDN60801

Issued at 11:35 am EDT Sunday 23 November 2014 (issued every 30 minutes, with the page automatically refreshed every 10 minutes)

About weather observations | Map of weather stations | Latest weather observations for NSW | Other Formats
Station Details ID: 046128 Name: FOWLERS GAP AWS Lat: -31.09 Lon: 141.70 Height: 181.0 m
Data from the previous 72 hours. | See also: Recent months at Fowlers Gap
Date/Time
EDT
Temp
°C
App
Temp
°C
Dew
Point
Rel
Hum
%
Delta-T
°C
Wind Press
QNH
hPa
Press
MSL
hPa
Rain
since 9 am
mm
Dir
 
Spd
km/h
Gust
km/h
Spd
kts
Gust
kts
23/11:30am 30.6 28.7 14.2 36 10.0 SE 17 20 9 11 1012.0 1011.1 0.0
23/11:00am 29.2 26.7 14.2 40 9.1 S 20 30 11 16 1012.1 1011.2 0.0
23/10:30am 28.5 25.8 13.6 40 8.9 S 20 26 11 14 1012.5 1011.7 0.0
23/10:00am 28.2 24.9 12.9 38 9.1 S 22 30 12 16 1012.3 1011.5 0.0
23/09:30am 27.3 24.5 13.3 42 8.3 SSE 20 30 11 16 1012.0 1011.1 0.0
23/09:00am 26.4 23.2 13.2 44 7.8 SSE 22 26 12 14 1011.7 1010.8 0.0
23/08:30am 25.2 22.1 13.4 48 7.0 SE 22 30 12 16 1011.0 1010.1 0.0
23/08:00am 24.6 20.8 13.5 50 6.5 SSE 26 35 14 19 1010.6 1009.7 0.0
23/07:30am 24.1 21.2 13.9 53 6.0 SSE 22 39 12 21 1009.8 1008.9 0.0
23/07:00am 23.6 19.9 14.9 58 5.2 SSE 28 35 15 19 1009.0 1008.2 0.0
23/06:30am 23.9 20.6 14.9 57 5.4 SSE 26 33 14 18 1008.6 1007.8 0.0
23/06:00am 24.9 22.8 15.2 54 5.9 S 20 32 11 17 1008.4 1007.6 0.0
23/05:30am 26.3 25.9 14.1 47 7.3 SE 9 20 5 11 1008.0 1007.2 0.0
23/05:00am 25.7 25.7 14.2 49 6.9 SW 7 11 4 6 1008.0 1007.2 0.0
23/04:30am 26.5 27.4 13.9 45 7.5 W 2 7 1 4 1007.3 1006.4 0.0
23/04:00am 27.2 27.2 12.4 40 8.7 ENE 4 7 2 4 1007.1 1006.2 0.0
23/03:30am 28.5 28.9 12.4 37 9.5 W 2 6 1 3 1006.7 1005.8 0.0
23/03:00am 29.6 28.2 12.1 34 10.3 WNW 11 13 6 7 1006.6 1005.7 0.0
23/02:30am 31.0 29.5 11.9 31 11.3 NW 11 13 6 7 1006.7 1005.8 0.0
23/02:00am 31.0 29.7 12.4 32 11.1 NW 11 15 6 8 1006.8 1005.9 0.0
23/01:30am 31.9 30.3 11.7 29 11.9 NW 11 15 6 8 1007.1 1006.2 0.0
23/01:00am 31.9 29.2 11.7 29 11.9 WNW 17 20 9 11 1007.6 1006.8 0.0
23/12:30am 32.3 28.2 11.5 28 12.3 W 24 33 13 18 1007.7 1006.9 0.0
23/12:00am 33.2 25.4 11.7 27 12.8 W 44 63 24 34 1007.8 1007.0 0.0
 
Date/Time
EDT
Temp
°C
App
Temp
°C
Dew
Point
Rel
Hum
%
Delta-T
°C
Wind Press
QNH
hPa
Press
MSL
hPa
Rain
since 9 am
mm
Dir
 
Spd
km/h
Gust
km/h
Spd
kts
Gust
kts
22/11:40pm 33.3 23.6 11.8 27 12.8 W 54 72 29 39 1008.0 1007.2 0.0
22/11:38pm 34.0 24.5 11.2 25 13.5 W 52 69 28 37 1008.0 1007.2 0.0
22/11:30pm 32.5 29.1 9.3 24 13.2 WNW 17 20 9 11 1007.3 1006.4 0.0
22/11:00pm 34.7 30.7 8.4 20 15.0 NNW 19 26 10 14 1006.7 1005.8 0.0
22/10:30pm 35.2 31.2 8.1 19 15.3 NNW 19 26 10 14 1006.7 1005.8 0.0
22/10:00pm 36.0 31.7 8.0 18 15.9 NNW 20 28 11 15 1006.6 1005.7 0.0
22/09:30pm 36.1 31.7 8.8 19 15.7 NW 22 32 12 17 1006.5 1005.6 0.0
22/09:00pm 35.9 30.3 8.7 19 15.6 NNW 28 41 15 22 1006.0 1005.1 0.0
22/08:36pm 36.6 30.4 11.4 22 15.1 NW 35 59 19 32 1006.0 1005.1 0.0
22/08:30pm 38.9 32.1 7.6 15 17.9 NNW 33 48 18 26 1006.1 1005.2 0.0
22/08:00pm 39.5 33.5 7.1 14 18.5 NNW 28 37 15 20 1005.2 1004.3 0.0
22/07:55pm 39.6 33.6 7.1 14 18.5 NNW 28 41 15 22 1005.0 1004.1 0.0
22/07:30pm 37.4 35.6 10.7 20 15.9 WSW 11 20 6 11 1005.2 1004.3 0.0
22/07:00pm 36.5 32.4 11.3 22 15.1 SSW 24 35 13 19 1005.0 1004.1 0.0
22/06:41pm 39.1 32.6 10.4 18 17.1 NW 35 69 19 37 1005.1 1004.2 0.0
22/06:30pm 40.9 34.3 5.9 12 19.7 NW 30 41 16 22 1004.7 1003.8 0.0
22/06:10pm 41.3 34.7 6.2 12 19.9 NNW 30 48 16 26 1004.7 1003.8 0.0
22/06:00pm 41.7 34.4 5.3 11 20.4 NW 33 44 18 24 1004.6 1003.7 0.0
22/05:49pm 41.5 34.3 5.1 11 20.3 NW 32 50 17 27 1004.7 1003.8 0.0
22/05:30pm 41.8 34.1 5.3 11 20.4 NW 35 48 19 26 1005.0 1004.1 0.0
22/05:04pm 42.0 34.7 5.5 11 20.5 NNW 33 52 18 28 1005.2 1004.3 0.0
22/05:00pm 41.6 33.9 5.2 11 20.4 NW 35 52 19 28 1005.1 1004.2 0.0
22/04:31pm 41.8 34.5 5.3 11 20.4 NNW 33 52 18 28 1005.4 1004.5 0.0
22/04:30pm 41.8 34.5 5.3 11 20.4 NNW 33 46 18 25 1005.5 1004.6 0.0
22/04:00pm 41.5 36.7 7.5 13 19.7 N 22 37 12 20 1006.1 1005.2 0.0
22/03:30pm 39.7 34.5 7.2 14 18.5 NNE 24 37 13 20 1006.7 1005.8 0.0
22/03:00pm 39.5 34.9 8.1 15 18.2 NNE 22 35 12 19 1007.5 1006.7 0.0
22/02:30pm 38.3 34.7 9.8 18 16.8 ENE 19 28 10 15 1008.1 1007.3 0.0
22/02:00pm 37.2 33.2 10.5 20 15.8 E 22 32 12 17 1008.8 1008.0 0.0
22/01:30pm 35.7 32.1 10.7 22 14.8 E 20 32 11 17 1009.9 1009.0 0.0
22/01:00pm 34.0 29.8 11.2 25 13.5 ESE 24 33 13 18 1010.7 1009.8 0.0
22/12:30pm 33.9 28.9 11.1 25 13.4 SE 28 33 15 18 1011.2 1010.3 0.0
22/12:00pm 32.9 27.1 11.4 27 12.7 SSE 33 44 18 24 1011.5 1010.6 0.0
22/11:30am 31.6 25.7 10.3 27 12.3 S 32 43 17 23 1012.1 1011.2 0.0
22/11:23am 31.5 26.0 9.1 25 12.7 S 28 46 15 25 1012.3 1011.5 0.0
22/11:00am 34.4 31.2 6.7 18 15.3 NW 13 22 7 12 1012.1 1011.2 0.0
22/10:30am 34.0 28.0 7.1 19 14.9 N 28 37 15 20 1010.7 1009.8 0.0
22/10:00am 33.1 26.9 7.9 21 14.1 NNE 30 43 16 23 1009.9 1009.0 0.0
22/09:30am 32.1 26.6 7.7 22 13.5 NE 26 39 14 21 1010.1 1009.2 0.0
22/09:00am 29.4 24.2 7.3 25 12.0 NE 24 35 13 19 1010.0 1009.1 0.0
22/08:30am 27.7 23.3 7.5 28 10.9 ENE 20 26 11 14 1010.2 1009.3 0.0
22/08:00am 25.9 21.7 7.5 31 9.9 ENE 19 24 10 13 1009.9 1009.0 0.0
22/07:30am 24.4 21.0 7.5 34 9.0 ENE 15 19 8 10 1010.0 1009.1 0.0
22/07:00am 23.0 20.0 7.5 37 8.2 ENE 13 17 7 9 1009.7 1008.8 0.0
22/06:30am 22.0 19.3 7.4 39 7.6 E 11 13 6 7 1009.4 1008.5 0.0
22/06:00am 22.1 19.5 7.9 40 7.5 E 11 15 6 8 1009.4 1008.5 0.0
22/05:30am 21.2 20.6 7.4 41 7.2 CALM 0 0 0 0 1009.4 1008.5 0.0
22/05:00am 21.8 21.2 7.2 39 7.6 CALM 0 0 0 0 1009.5 1008.6 0.0
22/04:30am 22.7 20.8 7.7 38 7.9 E 7 9 4 5 1009.5 1008.6 0.0
22/04:00am 22.9 21.0 7.4 37 8.1 ENE 7 7 4 4 1009.5 1008.6 0.0
22/03:30am 23.2 21.2 7.3 36 8.3 ENE 7 7 4 4 1009.5 1008.6 0.0
22/03:00am 23.6 21.6 7.3 35 8.6 ENE 7 9 4 5 1009.7 1008.8 0.0
22/02:30am 24.8 22.9 7.4 33 9.2 E 7 9 4 5 1009.9 1009.0 0.0
22/02:00am 26.0 24.1 7.6 31 9.9 E 7 9 4 5 1010.2 1009.3 0.0
22/01:30am 27.2 24.2 7.6 29 10.6 E 13 19 7 10 1010.3 1009.4 0.0
22/01:00am 26.4 24.8 7.9 31 10.0 SE 6 20 3 11 1010.5 1009.6 0.0
22/12:30am 25.0 23.0 6.2 30 9.8 SSE 6 11 3 6 1010.6 1009.7 0.0
22/12:00am 24.8 23.8 5.6 29 9.9 CALM 0 0 0 0 1010.8 1009.9 0.0
 
Date/Time
EDT
Temp
°C
App
Temp
°C
Dew
Point
Rel
Hum
%
Delta-T
°C
Wind Press
QNH
hPa
Press
MSL
hPa
Rain
since 9 am
mm
Dir
 
Spd
km/h
Gust
km/h
Spd
kts
Gust
kts
21/11:30pm 25.3 24.2 5.0 27 10.3 CALM 0 6 0 3 1010.9 1010.0 0.0
21/11:00pm 25.7 24.6 5.3 27 10.5 CALM 0 2 0 1 1011.0 1010.1 0.0
21/10:30pm 26.6 25.5 5.0 25 11.1 CALM 0 0 0 0 1011.0 1010.1 0.0
21/10:00pm 27.3 26.3 5.6 25 11.3 CALM 0 0 0 0 1010.8 1009.9 0.0
21/09:30pm 28.6 26.3 5.5 23 12.1 SE 7 7 4 4 1010.8 1009.9 0.0
21/09:00pm 29.6 27.3 5.0 21 12.9 SSW 6 6 3 3 1010.6 1009.7 0.0
21/08:30pm 31.0 28.5 4.7 19 13.8 SW 7 7 4 4 1010.4 1009.5 0.0
21/08:00pm 32.8 29.1 4.6 17 14.9 SW 13 17 7 9 1010.2 1009.3 0.0
21/07:30pm 33.4 30.4 4.2 16 15.4 WSW 9 15 5 8 1009.8 1008.9 0.0
21/07:00pm 34.0 30.2 3.7 15 15.9 SSW 13 19 7 10 1009.6 1008.7 0.0
21/06:30pm 34.6 31.0 5.1 16 15.9 SSW 13 19 7 10 1009.4 1008.5 0.0
21/06:00pm 34.5 29.2 3.1 14 16.4 SW 20 26 11 14 1009.4 1008.5 0.0
21/05:30pm 34.0 29.2 4.6 16 15.7 S 19 24 10 13 1009.4 1008.5 0.0
21/05:00pm 34.4 30.2 5.8 17 15.6 WSW 17 20 9 11 1009.6 1008.7 0.0
21/04:30pm 34.3 29.3 6.6 18 15.3 WSW 22 33 12 18 1009.8 1008.9 0.0
21/04:00pm 34.1 29.3 7.2 19 15.0 W 22 35 12 19 1010.2 1009.3 0.0
21/03:30pm 34.0 30.7 7.9 20 14.7 W 15 22 8 12 1010.5 1009.6 0.0
21/03:00pm 33.6 29.2 7.5 20 14.5 SW 20 33 11 18 1010.8 1009.9 0.0
21/02:30pm 33.3 28.4 10.0 24 13.5 W 26 43 14 23 1011.1 1010.2 0.0
21/02:29pm 34.0 28.9 10.6 24 13.7 W 28 43 15 23 1011.0 1010.1 0.0
21/02:00pm 33.1 31.6 10.4 25 13.2 WNW 9 15 5 8 1011.5 1010.6 0.0
21/01:30pm 32.7 29.3 10.7 26 12.8 W 19 32 10 17 1011.9 1011.0 0.0
21/01:00pm 30.7 29.2 13.0 33 10.6 NNW 13 24 7 13 1012.2 1011.3 0.0
21/12:30pm 30.4 29.5 13.7 36 10.1 WSW 11 20 6 11 1012.6 1011.8 0.0
21/12:00pm 29.2 28.6 13.4 38 9.5 NNW 9 17 5 9 1012.9 1012.1 0.0
21/11:30am 29.1 28.7 14.1 40 9.1 NNW 9 19 5 10 1013.1 1012.3 0.0
21/11:00am 28.2 27.9 14.4 42 8.4 SSE 9 19 5 10 1013.1 1012.3 0.0
21/10:30am 27.2 27.1 14.9 47 7.5 E 9 19 5 10 1013.2 1012.4 0.0
21/10:00am 25.8 24.9 14.9 51 6.6 E 13 17 7 9 1013.2 1012.4 0.0
21/09:30am 24.9 23.7 15.0 54 6.0 SE 15 22 8 12 1013.1 1012.3 0.0
21/09:00am 24.4 23.4 15.6 58 5.4 SE 15 19 8 10 1012.9 1012.1 0.0
21/08:30am 23.2 22.1 15.3 61 4.8 SE 15 20 8 11 1012.8 1012.0 0.0
21/08:00am 22.6 20.4 15.0 62 4.5 SSE 20 26 11 14 1012.4 1011.6 0.0
21/07:30am 22.0 20.8 13.9 60 4.7 S 13 19 7 10 1012.1 1011.2 0.0
21/07:00am 21.0 20.2 12.9 60 4.6 S 9 11 5 6 1011.9 1011.0 0.0
21/06:30am 19.1 17.7 9.6 54 5.1 S 7 9 4 5 1011.4 1010.5 0.0
21/06:00am 18.8 17.2 8.7 52 5.3 SSW 7 9 4 5 1011.0 1010.1 0.0
21/05:30am 18.9 18.6 8.8 52 5.3 CALM 0 6 0 3 1010.6 1009.7 0.0
21/05:00am 19.1 18.7 8.4 50 5.6 CALM 0 0 0 0 1010.3 1009.4 0.0
21/04:30am 19.3 19.0 8.6 50 5.6 CALM 0 0 0 0 1010.2 1009.3 0.0
21/04:00am 19.6 18.1 8.6 49 5.8 SW 6 7 3 4 1010.0 1009.1 0.0
21/03:30am 20.1 19.5 9.1 49 5.9 NW 2 7 1 4 1009.9 1009.0 0.0
21/03:00am 20.8 20.6 9.1 47 6.3 CALM 0 0 0 0 1010.1 1009.2 0.0
21/02:30am 21.3 20.0 9.2 46 6.5 NE 6 7 3 4 1010.1 1009.2 0.0
21/02:00am 21.9 20.7 9.4 45 6.8 N 6 9 3 5 1010.2 1009.3 0.0
21/01:30am 22.1 20.1 8.6 42 7.2 SW 9 11 5 6 1010.2 1009.3 0.0
21/01:00am 22.2 20.6 8.7 42 7.2 SSW 7 11 4 6 1010.3 1009.4 0.0
21/12:30am 22.3 21.9 8.4 41 7.4 CALM 0 4 0 2 1010.4 1009.5 0.0
21/12:00am 23.1 21.6 8.4 39 7.9 SW 6 11 3 6 1010.5 1009.6 0.0
 
Date/Time
EDT
Temp
°C
App
Temp
°C
Dew
Point
Rel
Hum
%
Delta-T
°C
Wind Press
QNH
hPa
Press
MSL
hPa
Rain
since 9 am
mm
Dir
 
Spd
km/h
Gust
km/h
Spd
kts
Gust
kts
20/11:30pm 23.5 21.4 8.4 38 8.1 WSW 9 11 5 6 1010.6 1009.7 0.0
20/11:00pm 23.6 21.5 8.1 37 8.3 W 9 9 5 5 1010.5 1009.6 0.0
20/10:30pm 24.3 22.1 7.9 35 8.8 WSW 9 11 5 6 1010.4 1009.5 0.0
20/10:00pm 24.8 22.6 7.9 34 9.1 SW 9 11 5 6 1010.2 1009.3 0.0
20/09:30pm 25.7 23.6 8.2 33 9.5 SW 9 11 5 6 1009.8 1008.9 0.0
20/09:00pm 27.1 24.9 8.0 30 10.4 SW 9 11 5 6 1009.4 1008.5 0.0
20/08:30pm 28.4 25.1 8.1 28 11.1 SW 15 20 8 11 1008.9 1008.1 0.0
20/08:00pm 29.6 25.6 8.1 26 11.9 WSW 19 24 10 13 1008.7 1007.9 0.0
20/07:30pm 30.5 25.4 7.7 24 12.5 WSW 24 30 13 16 1008.3 1007.5 0.0
20/07:00pm 30.6 25.2 6.5 22 13.0 WSW 24 32 13 17 1007.9 1007.1 0.0
20/06:30pm 30.8 26.3 6.0 21 13.3 WSW 19 28 10 15 1008.0 1007.2 0.0
20/06:00pm 30.6 26.3 7.1 23 12.8 WSW 19 26 10 14 1008.0 1007.2 0.0
20/05:30pm 30.4 26.2 7.6 24 12.5 SW 19 24 10 13 1008.1 1007.3 0.0
20/05:00pm 30.1 23.3 7.9 25 12.2 WSW 33 43 18 23 1008.6 1007.8 0.0
20/04:30pm 30.6 22.8 8.3 25 12.4 SW 39 54 21 29 1008.4 1007.6 0.0
20/04:00pm 31.7 22.8 6.7 21 13.6 WSW 43 54 23 29 1008.3 1007.5 0.0
20/03:30pm 32.7 23.3 4.5 17 14.9 WSW 43 56 23 30 1008.4 1007.6 0.0
20/03:00pm 34.9 25.3 3.5 14 16.6 W 43 56 23 30 1008.2 1007.4 0.0
20/02:45pm 35.6 26.9 1.8 12 17.4 W 37 50 20 27 1008.3 1007.5 0.0
20/02:30pm 36.7 29.8 -2.9 8 19.0 WNW 24 39 13 21 1008.3 1007.5 0.0
20/02:00pm 37.4 31.7 -0.8 9 19.1 WNW 19 26 10 14 1008.6 1007.8 0.0
20/01:30pm 36.9 28.7 -1.1 9 18.8 WNW 32 35 17 19 1009.1 1008.3 0.0
20/01:00pm 36.7 30.0 -1.3 9 18.8 NW 24 41 13 22 1009.7 1008.8 0.0
20/12:30pm 36.9 29.8 -1.1 9 18.8 NNW 26 37 14 20 1010.1 1009.2 0.0
20/12:00pm 35.9 29.9 -1.9 9 18.4 N 20 39 11 21 1010.5 1009.6 0.0

Other Formats:

Comma delimited format used in spreadsheet applications
http://www.bom.gov.au/fwo/IDN60801/IDN60801.94686.axf

JavaScript Object Notation format (JSON) in row-major order
http://www.bom.gov.au/fwo/IDN60801/IDN60801.94686.json